Time;durP1;ratioP1;P1;durP2;ratioP2;P2;SDS_P1;SDS_P2;PMS_P1;PMS_P2;Temp;Humidity;BMP_temperature;BMP_pressure;BME280_temperature;BME280_humidity;BME280_pressure;Samples;Min_cycle;Max_cycle;Signal;HPM_P1;HPM_P2
2023/07/22 00:00:18;;;;;;;11.95;5.93;;;;;;;;;;5018521;28;20041;-78
2023/07/22 00:02:44;;;;;;;14.63;6.15;;;;;;;;;;5018950;28;20041;-77
2023/07/22 00:05:10;;;;;;;13.85;6.32;;;;;;;;;;5020136;28;20076;-78
2023/07/22 00:07:36;;;;;;;12.00;6.60;;;;;;;;;;5019696;28;20553;-77
2023/07/22 00:10:03;;;;;;;13.18;6.50;;;11.80;99.90;;;;;;5022168;28;20521;-76
2023/07/22 00:12:29;;;;;;;14.85;6.78;;;;;;;;;;5018122;28;20506;-77
2023/07/22 00:14:55;;;;;;;15.07;6.35;;;;;;;;;;5018768;28;20053;-77
2023/07/22 00:17:21;;;;;;;14.65;7.00;;;;;;;;;;5001605;28;20076;-77
2023/07/22 00:19:50;;;;;;;13.10;6.88;;;11.70;99.90;;;;;;5018841;28;20407;-78
2023/07/22 00:22:17;;;;;;;15.25;7.38;;;;;;;;;;5018566;28;20169;-77
2023/07/22 00:24:43;;;;;;;13.43;6.75;;;;;;;;;;4999156;28;20395;-78
2023/07/22 00:27:09;;;;;;;14.93;6.78;;;;;;;;;;5018852;28;20119;-77
2023/07/22 00:29:35;;;;;;;17.40;7.13;;;11.70;99.90;;;;;;5017806;28;20060;-80
2023/07/22 00:32:01;;;;;;;14.38;6.82;;;8.80;99.90;;;;;;5002289;28;20053;-77
2023/07/22 00:34:26;;;;;;;15.23;7.18;;;11.30;99.90;;;;;;5002668;28;20694;-79
2023/07/22 00:36:52;;;;;;;15.63;7.53;;;11.40;99.90;;;;;;5019242;28;20789;-78
2023/07/22 00:39:18;;;;;;;16.35;7.22;;;10.90;99.90;;;;;;5002259;28;20057;-77
2023/07/22 00:41:44;;;;;;;13.10;6.38;;;11.20;99.90;;;;;;5001907;28;20068;-79
2023/07/22 00:44:12;;;;;;;14.23;6.65;;;10.90;99.90;;;;;;5017872;28;20049;-78
2023/07/22 00:46:38;;;;;;;12.95;7.35;;;;;;;;;;5012141;28;20132;-78
2023/07/22 00:49:06;;;;;;;15.80;7.10;;;10.80;99.90;;;;;;5017647;28;20057;-78
2023/07/22 00:51:33;;;;;;;12.75;6.85;;;;;;;;;;5019482;28;20159;-76
2023/07/22 00:53:59;;;;;;;12.05;5.65;;;;;;;;;;5021757;28;20050;-75
2023/07/22 00:56:25;;;;;;;14.20;7.82;;;;;;;;;;5021757;28;20452;-79
2023/07/22 00:58:52;;;;;;;13.23;6.95;;;10.80;99.90;;;;;;5004726;28;20599;-78
2023/07/22 01:01:18;;;;;;;18.33;6.90;;;;;;;;;;5004304;28;20060;-79
2023/07/22 01:03:46;;;;;;;13.82;7.40;;;;;;;;;;5021179;28;20049;-78
2023/07/22 01:06:12;;;;;;;17.02;6.28;;;;;;;;;;5002151;28;20093;-76
2023/07/22 01:08:39;;;;;;;16.08;7.32;;;;;;;;;;5004608;28;20056;-76
2023/07/22 01:11:06;;;;;;;14.50;7.40;;;;;;;;;;5021390;28;20112;-76
2023/07/22 01:13:32;;;;;;;13.13;6.55;;;;;;;;;;5021179;28;20056;-76
2023/07/22 01:15:58;;;;;;;16.85;6.57;;;10.40;99.90;;;;;;5021773;28;20052;-76
2023/07/22 01:18:24;;;;;;;14.15;6.90;;;;;;;;;;5022116;28;20057;-77
2023/07/22 01:20:51;;;;;;;17.05;6.43;;;;;;;;;;5008196;28;20049;-77
2023/07/22 01:23:17;;;;;;;15.15;6.88;;;;;;;;;;5025272;28;20077;-79
2023/07/22 01:25:44;;;;;;;13.57;7.88;;;;;;;;;;5005182;28;20053;-79
2023/07/22 01:28:13;;;;;;;13.40;6.40;;;;;;;;;;5020458;28;20136;-75
2023/07/22 01:30:40;;;;;;;16.73;7.63;;;;;;;;;;5021073;28;20140;-76
2023/07/22 01:33:06;;;;;;;14.30;6.82;;;;;;;;;;5021218;28;20128;-76
2023/07/22 01:35:33;;;;;;;13.15;7.05;;;;;;;;;;5022505;28;20049;-76
2023/07/22 01:37:59;;;;;;;14.45;6.47;;;;;;;;;;5020739;28;20654;-77
2023/07/22 01:40:26;;;;;;;19.10;7.70;;;;;;;;;;5021909;28;20045;-75
2023/07/22 01:42:52;;;;;;;13.80;6.40;;;;;;;;;;5014682;28;20351;-78
2023/07/22 01:45:18;;;;;;;15.48;7.78;;;;;;;;;;5022060;28;20052;-79
2023/07/22 01:47:44;;;;;;;14.45;7.00;;;;;;;;;;5019513;28;20053;-78
2023/07/22 01:50:11;;;;;;;18.10;7.45;;;;;;;;;;5019731;28;20106;-79
2023/07/22 01:52:37;;;;;;;14.85;7.22;;;;;;;;;;5018883;28;20049;-75
2023/07/22 01:55:05;;;;;;;19.30;8.57;;;;;;;;;;5022263;28;20354;-75
2023/07/22 01:57:31;;;;;;;17.33;7.47;;;;;;;;;;5002515;28;20053;-80
2023/07/22 01:59:58;;;;;;;18.75;7.10;;;;;;;;;;5018171;28;20057;-77
2023/07/22 02:02:25;;;;;;;16.10;6.70;;;;;;;;;;5020395;28;20049;-76
2023/07/22 02:04:51;;;;;;;13.93;6.32;;;;;;;;;;5002604;28;20045;-75
2023/07/22 02:07:17;;;;;;;16.30;6.80;;;;;;;;;;5019640;28;20529;-77
2023/07/22 02:09:44;;;;;;;17.85;7.63;;;;;;;;;;5003301;28;20495;-79
2023/07/22 02:12:11;;;;;;;17.55;7.65;;;;;;;;;;5019664;28;20038;-77
2023/07/22 02:14:37;;;;;;;18.80;6.28;;;9.30;99.90;;;;;;5019946;28;20578;-77
2023/07/22 02:17:03;;;;;;;17.85;8.07;;;;;;;;;;5020049;28;20441;-77
2023/07/22 02:19:29;;;;;;;14.73;7.57;;;;;;;;;;5018196;28;20052;-75
2023/07/22 02:21:55;;;;;;;17.63;7.57;;;;;;;;;;5019770;28;20053;-75
2023/07/22 02:24:23;;;;;;;20.73;7.60;;;9.30;99.90;;;;;;5019280;28;20053;-76
2023/07/22 02:26:49;;;;;;;15.15;6.95;;;;;;;;;;5020165;28;20037;-75
2023/07/22 02:29:16;;;;;;;16.85;7.05;;;;;;;;;;5019918;28;20537;-74
2023/07/22 02:31:42;;;;;;;19.58;7.55;;;;;;;;;;5020568;28;20081;-77
2023/07/22 02:34:08;;;;;;;15.98;7.15;;;;;;;;;;5024186;28;20041;-80
2023/07/22 02:36:34;;;;;;;14.68;7.43;;;;;;;;;;5020849;28;20567;-79
2023/07/22 02:39:00;;;;;;;19.52;8.18;;;;;;;;;;5021159;28;20049;-77
2023/07/22 02:41:26;;;;;;;15.15;6.30;;;;;;;;;;5000779;28;20045;-76
2023/07/22 02:43:52;;;;;;;16.20;6.72;;;;;;;;;;5021816;28;20041;-76
2023/07/22 02:46:18;;;;;;;12.35;5.95;;;;;;;;;;5021952;28;20049;-77
2023/07/22 02:48:45;;;;;;;16.05;6.75;;;;;;;;;;5005102;28;20057;-77
2023/07/22 02:51:11;;;;;;;15.82;5.97;;;;;;;;;;5020425;28;20091;-76
2023/07/22 02:53:37;;;;;;;12.73;5.97;;;;;;;;;;5018793;28;20048;-78
2023/07/22 02:56:04;;;;;;;17.33;7.18;;;11.30;99.90;;;;;;5019980;28;20076;-77
2023/07/22 02:58:30;;;;;;;15.57;6.60;;;;;;;;;;5051948;28;20128;-78
2023/07/22 03:00:59;;;;;;;18.63;6.28;;;;;;;;;;5003639;28;20049;-75
2023/07/22 03:03:25;;;;;;;16.50;6.72;;;;;;;;;;5001323;28;20060;-77
2023/07/22 03:05:52;;;;;;;15.23;6.60;;;;;;;;;;5019570;28;20052;-77
2023/07/22 03:08:18;;;;;;;16.50;5.80;;;;;;;;;;5019195;28;20057;-78
2023/07/22 03:10:48;;;;;;;16.20;7.03;;;;;;;;;;5018705;28;20049;-76
2023/07/22 03:13:15;;;;;;;15.05;6.47;;;9.10;99.90;;;;;;5018678;28;20053;-76
2023/07/22 03:15:41;;;;;;;16.67;7.10;;;;;;;;;;5018261;28;20688;-75
2023/07/22 03:18:09;;;;;;;14.45;6.65;;;;;;;;;;5018363;28;20049;-77
2023/07/22 03:20:36;;;;;;;22.35;9.20;;;;;;;;;;4999862;28;20045;-77
2023/07/22 03:23:02;;;;;;;18.90;6.82;;;;;;;;;;5022119;28;20076;-77
2023/07/22 03:25:28;;;;;;;17.05;7.32;;;;;;;;;;5018404;28;20060;-76
2023/07/22 03:27:54;;;;;;;22.40;7.85;;;;;;;;;;5002060;28;20053;-76
2023/07/22 03:30:22;;;;;;;20.63;7.93;;;9.30;99.90;;;;;;5019385;28;20144;-76
2023/07/22 03:32:50;;;;;;;26.08;8.70;;;;;;;;;;5019065;28;20123;-75
2023/07/22 03:35:16;;;;;;;16.88;7.28;;;;;;;;;;5018246;28;20542;-79
2023/07/22 03:37:43;;;;;;;20.85;8.65;;;;;;;;;;5017999;28;20049;-79
2023/07/22 03:40:26;;;;;;;19.65;7.90;;;9.30;99.90;;;;;;5012226;28;20670;-75
2023/07/22 03:42:54;;;;;;;20.95;9.52;;;9.40;99.90;;;;;;5006708;28;20057;-76
2023/07/22 03:45:21;;;;;;;24.55;9.40;;;9.40;99.90;;;;;;5018139;28;20046;-76
2023/07/22 03:47:51;;;;;;;24.38;9.13;;;9.50;99.90;;;;;;5018261;28;20053;-78
2023/07/22 03:50:17;;;;;;;27.95;10.23;;;;;;;;;;5018103;28;20143;-78
2023/07/22 03:52:43;;;;;;;24.77;9.02;;;;;;;;;;4995564;28;20049;-79
2023/07/22 03:55:10;;;;;;;20.42;9.07;;;;;;;;;;5018343;28;20045;-77
2023/07/22 03:57:36;;;;;;;23.15;8.80;;;;;;;;;;5017975;28;20094;-77
2023/07/22 04:00:06;;;;;;;21.90;10.13;;;9.80;99.90;;;;;;5018403;28;20060;-77
2023/07/22 04:02:34;;;;;;;24.65;10.43;;;;;;;;;;5017330;28;20056;-76
2023/07/22 04:05:00;;;;;;;30.85;12.50;;;;;;;;;;5001050;28;20058;-77
2023/07/22 04:07:27;;;;;;;28.25;10.27;;;;;;;;;;5001867;28;20056;-76
2023/07/22 04:09:53;;;;;;;22.85;10.48;;;;;;;;;;5001804;28;20148;-78
2023/07/22 04:12:19;;;;;;;25.98;10.77;;;;;;;;;;4999622;28;20053;-76
2023/07/22 04:14:45;;;;;;;27.33;11.05;;;;;;;;;;5018357;28;20045;-76
2023/07/22 04:17:11;;;;;;;23.42;10.50;;;;;;;;;;5018498;28;20132;-79
2023/07/22 04:19:37;;;;;;;22.85;9.80;;;;;;;;;;5018023;28;20682;-76
2023/07/22 04:22:04;;;;;;;23.35;10.63;;;;;;;;;;5017839;28;20064;-78
2023/07/22 04:24:33;;;;;;;23.25;10.40;;;10.70;99.90;;;;;;5017866;28;20383;-79
2023/07/22 04:27:00;;;;;;;27.02;11.57;;;;;;;;;;5019199;28;20081;-78
2023/07/22 04:29:26;;;;;;;23.73;11.48;;;;;;;;;;5019617;28;20052;-76
2023/07/22 04:31:52;;;;;;;39.55;11.77;;;;;;;;;;5019528;28;20065;-76
2023/07/22 04:34:19;;;;;;;24.90;11.75;;;;;;;;;;5019584;28;20068;-77
2023/07/22 04:36:45;;;;;;;22.05;10.45;;;;;;;;;;5014058;28;20506;-77
2023/07/22 04:39:11;;;;;;;27.63;11.35;;;;;;;;;;5019529;28;20111;-78
2023/07/22 04:41:38;;;;;;;21.40;10.43;;;;;;;;;;5019653;28;20045;-77
2023/07/22 04:44:04;;;;;;;25.40;11.13;;;;;;;;;;4998746;28;20133;-78
2023/07/22 04:46:30;;;;;;;21.17;10.32;;;;;;;;;;5020994;28;20538;-78
2023/07/22 04:48:58;;;;;;;24.08;12.15;;;;;;;;;;5004154;28;20064;-76
2023/07/22 04:51:24;;;;;;;21.80;11.25;;;;;;;;;;5021256;28;20056;-79
2023/07/22 04:53:50;;;;;;;24.63;10.82;;;;;;;;;;5020580;28;20041;-75
2023/07/22 04:56:16;;;;;;;27.85;11.80;;;;;;;;;;5021022;28;20586;-81
2023/07/22 04:58:43;;;;;;;22.35;11.77;;;;;;;;;;5021202;28;20107;-77
2023/07/22 05:01:09;;;;;;;26.48;11.05;;;;;;;;;;5004102;28;20049;-78
2023/07/22 05:03:36;;;;;;;25.88;10.93;;;;;;;;;;5019085;28;20139;-80
2023/07/22 05:06:02;;;;;;;24.30;10.57;;;;;;;;;;5019061;28;20106;-76
2023/07/22 05:08:28;;;;;;;20.13;10.05;;;;;;;;;;5019389;28;20049;-77
2023/07/22 05:10:54;;;;;;;24.27;11.30;;;;;;;;;;5016690;28;20045;-79
2023/07/22 05:13:20;;;;;;;21.75;11.18;;;;;;;;;;5020848;28;20060;-81
2023/07/22 05:15:46;;;;;;;22.67;11.15;;;;;;;;;;5004370;28;20045;-79
2023/07/22 05:18:12;;;;;;;19.45;10.60;;;;;;;;;;5020914;28;20057;-77
2023/07/22 05:20:39;;;;;;;25.17;12.90;;;;;;;;;;5019955;28;20057;-77
2023/07/22 05:23:05;;;;;;;24.08;11.00;;;;;;;;;;5020359;28;20049;-79
2023/07/22 05:25:31;;;;;;;23.85;11.20;;;;;;;;;;5017862;28;21685;-78
2023/07/22 05:27:57;;;;;;;26.85;12.18;;;;;;;;;;5020713;28;20208;-77
2023/07/22 05:30:23;;;;;;;25.88;12.25;;;;;;;;;;5017024;28;20534;-79
2023/07/22 05:32:53;;;;;;;25.30;12.00;;;13.00;99.90;;;;;;5023823;28;20144;-80
2023/07/22 05:35:19;;;;;;;19.52;10.40;;;;;;;;;;5018471;28;20466;-80
2023/07/22 05:37:45;;;;;;;22.83;11.95;;;;;;;;;;5003479;28;20046;-80
2023/07/22 05:40:11;;;;;;;26.85;11.75;;;;;;;;;;5023211;28;20077;-78
2023/07/22 05:42:38;;;;;;;23.50;12.60;;;;;;;;;;5003859;28;20479;-77
2023/07/22 05:45:04;;;;;;;25.65;12.32;;;;;;;;;;5019909;28;20051;-78
2023/07/22 05:47:30;;;;;;;22.90;11.77;;;;;;;;;;5001060;28;20132;-79
2023/07/22 05:49:56;;;;;;;25.85;13.93;;;;;;;;;;5004760;28;20359;-81
2023/07/22 05:52:23;;;;;;;20.80;11.65;;;;;;;;;;5004068;28;20061;-78
2023/07/22 05:54:49;;;;;;;23.92;12.98;;;;;;;;;;5019131;28;20103;-78
2023/07/22 05:57:15;;;;;;;19.83;11.55;;;;;;;;;;5016688;28;20107;-80
2023/07/22 05:59:42;;;;;;;19.33;11.15;;;;;;;;;;5018597;28;20091;-79
2023/07/22 06:02:08;;;;;;;20.25;10.70;;;13.80;99.90;;;;;;5015319;28;20120;-78
2023/07/22 06:04:34;;;;;;;21.52;11.23;;;;;;;;;;5051991;28;20410;-77
2023/07/22 06:07:00;;;;;;;21.23;11.15;;;;;;;;;;5019551;28;20056;-81
2023/07/22 06:09:27;;;;;;;23.50;12.23;;;;;;;;;;5018657;28;20053;-81
2023/07/22 06:11:53;;;;;;;22.65;11.32;;;;;;;;;;5018094;28;20053;-78
2023/07/22 06:14:19;;;;;;;24.38;11.57;;;;;;;;;;5018064;28;20049;-79
2023/07/22 06:16:45;;;;;;;20.60;11.80;;;;;;;;;;5018313;28;20053;-81
2023/07/22 06:19:11;;;;;;;21.38;11.85;;;;;;;;;;4998386;28;20515;-78
2023/07/22 06:21:37;;;;;;;18.98;11.10;;;;;;;;;;5018448;28;20049;-79
2023/07/22 06:24:03;;;;;;;21.80;11.45;;;;;;;;;;5018903;28;20049;-77
2023/07/22 06:26:29;;;;;;;21.05;12.15;;;;;;;;;;5019421;28;20057;-78
2023/07/22 06:28:56;;;;;;;22.10;12.20;;;;;;;;;;4992556;28;20568;-77
2023/07/22 06:31:22;;;;;;;20.17;12.23;;;;;;;;;;5017971;28;20574;-79
2023/07/22 06:33:49;;;;;;;21.45;12.57;;;;;;;;;;5015936;28;20053;-80
2023/07/22 06:36:16;;;;;;;21.08;11.65;;;;;;;;;;5022489;28;20518;-79
2023/07/22 06:38:42;;;;;;;21.52;11.05;;;;;;;;;;5003020;28;20080;-82
2023/07/22 06:41:08;;;;;;;18.02;11.48;;;;;;;;;;5019539;28;20045;-78
2023/07/22 06:43:34;;;;;;;21.77;11.85;;;;;;;;;;5020032;28;20045;-78
2023/07/22 06:46:01;;;;;;;14.10;9.63;;;;;;;;;;5003807;28;20402;-78
2023/07/22 06:48:26;;;;;;;16.33;10.38;;;20.80;99.90;;;;;;5023159;28;20081;-78
2023/07/22 06:50:52;;;;;;;13.20;8.88;;;;;;;;;;5019352;28;20125;-80
2023/07/22 06:53:19;;;;;;;11.93;7.90;;;;;;;;;;5019838;28;20077;-79
2023/07/22 06:55:54;;;;;;;15.60;8.38;;;22.30;99.90;;;;;;5019962;28;20119;-74
2023/07/22 06:58:22;;;;;;;13.63;8.27;;;;;;;;;;5020888;28;20049;-83
2023/07/22 07:00:48;;;;;;;11.73;7.75;;;;;;;;;;5021401;28;20061;-81
2023/07/22 07:03:14;;;;;;;13.68;7.57;;;;;;;;;;5019624;28;20046;-84
2023/07/22 07:05:41;;;;;;;11.38;7.28;;;;;;;;;;5018551;28;20037;-82
2023/07/22 07:08:07;;;;;;;12.52;8.73;;;;;;;;;;5017832;28;20053;-82
2023/07/22 07:10:39;;;;;;;12.65;8.23;;;20.70;99.80;;;;;;5021346;28;20045;-81
2023/07/22 07:13:04;;;;;;;11.98;7.50;;;20.90;99.80;;;;;;4994653;28;20050;-80
2023/07/22 07:15:30;;;;;;;16.63;8.00;;;;;;;;;;5019301;28;20526;-80
2023/07/22 07:17:57;;;;;;;11.65;8.50;;;;;;;;;;5018494;28;20057;-78
2023/07/22 07:20:23;;;;;;;10.95;7.82;;;;;;;;;;5018110;28;20175;-79
2023/07/22 07:22:49;;;;;;;13.38;8.25;;;;;;;;;;5019421;28;20056;-78
2023/07/22 07:25:15;;;;;;;10.45;7.75;;;;;;;;;;5020340;28;20057;-81
2023/07/22 07:27:41;;;;;;;14.88;7.80;;;;;;;;;;5025290;28;20091;-79
2023/07/22 07:30:08;;;;;;;12.13;7.93;;;21.70;96.60;;;;;;5031195;28;20064;-82
2023/07/22 07:32:35;;;;;;;11.88;8.05;;;;;;;;;;5049724;28;20061;-82
2023/07/22 07:35:01;;;;;;;10.60;7.65;;;;;;;;;;5022582;28;20234;-80
2023/07/22 07:37:27;;;;;;;10.68;8.18;;;;;;;;;;5022589;28;20040;-79
2023/07/22 07:39:53;;;;;;;13.75;8.90;;;;;;;;;;5018483;28;20118;-79
2023/07/22 07:42:19;;;;;;;14.63;8.32;;;;;;;;;;5029666;28;20601;-80
2023/07/22 07:44:46;;;;;;;11.23;8.18;;;22.20;95.90;;;;;;5027106;28;20050;-80
2023/07/22 07:47:12;;;;;;;11.55;8.70;;;;;;;;;;5003158;28;20148;-81
2023/07/22 07:49:38;;;;;;;12.70;8.57;;;;;;;;;;5021008;28;20045;-78
2023/07/22 07:52:04;;;;;;;13.35;8.52;;;;;;;;;;5019529;28;20045;-76
2023/07/22 07:54:30;;;;;;;11.23;7.93;;;;;;;;;;5021024;28;20053;-82
2023/07/22 07:56:56;;;;;;;11.13;8.00;;;24.70;92.20;;;;;;5021285;28;20056;-79
2023/07/22 07:59:22;;;;;;;13.23;8.68;;;;;;;;;;5020435;28;20581;-80
2023/07/22 08:01:48;;;;;;;12.05;7.90;;;;;;;;;;5023986;28;20157;-79
2023/07/22 08:04:14;;;;;;;10.40;7.90;;;28.00;84.70;;;;;;5018504;28;20042;-77
2023/07/22 08:06:40;;;;;;;10.07;6.82;;;;;;;;;;5021509;28;20045;-76
2023/07/22 08:09:06;;;;;;;10.70;7.20;;;;;;;;;;5019443;28;20049;-76
2023/07/22 08:11:33;;;;;;;10.63;6.97;;;;;;;;;;5024645;28;20056;-75
2023/07/22 08:13:59;;;;;;;11.35;7.32;;;;;;;;;;5010671;28;20550;-76
2023/07/22 08:16:25;;;;;;;10.52;7.03;;;;;;;;;;5022231;28;20081;-84
2023/07/22 08:18:51;;;;;;;12.88;7.55;;;;;;;;;;5027311;28;20115;-76
2023/07/22 08:21:17;;;;;;;9.73;6.85;;;;;;;;;;5028703;28;20052;-76
2023/07/22 08:23:46;;;;;;;9.60;6.78;;;;;;;;;;5021481;28;20474;-75
2023/07/22 08:26:13;;;;;;;9.10;6.63;;;;;;;;;;5021072;28;20503;-77
2023/07/22 08:28:39;;;;;;;10.05;7.25;;;;;;;;;;5018040;28;20054;-78
2023/07/22 08:31:05;;;;;;;9.32;6.38;;;;;;;;;;5020962;28;20050;-74
2023/07/22 08:33:31;;;;;;;12.10;7.05;;;26.10;74.00;;;;;;5005089;28;20049;-74
2023/07/22 08:35:57;;;;;;;11.57;8.18;;;;;;;;;;5005801;28;20053;-77
2023/07/22 08:38:23;;;;;;;11.55;6.60;;;;;;;;;;5025734;28;20781;-73
2023/07/22 08:40:51;;;;;;;9.55;7.25;;;24.60;77.10;;;;;;5017371;28;20141;-77
2023/07/22 08:43:21;;;;;;;11.38;7.68;;;24.40;77.10;;;;;;5006770;28;20053;-74
2023/07/22 08:45:49;;;;;;;11.40;7.70;;;24.20;78.00;;;;;;5006589;28;20041;-71
2023/07/22 08:48:18;;;;;;;10.70;7.43;;;24.10;78.30;;;;;;5027571;28;20131;-73
2023/07/22 08:50:44;;;;;;;11.05;6.95;;;;;;;;;;5025807;28;20142;-73
2023/07/22 08:53:11;;;;;;;11.43;7.00;;;23.60;78.90;;;;;;5010257;28;20693;-73
2023/07/22 08:55:40;;;;;;;13.07;7.15;;;23.30;80.00;;;;;;5028103;28;20049;-74
2023/07/22 08:58:09;;;;;;;19.08;7.80;;;23.00;80.50;;;;;;5025769;28;20812;-76
2023/07/22 09:00:35;;;;;;;11.13;8.00;;;;;;;;;;5022692;28;20048;-80
2023/07/22 09:03:01;;;;;;;9.70;7.03;;;;;;;;;;5023753;28;20052;-74
2023/07/22 09:05:28;;;;;;;16.30;6.93;;;22.20;82.90;;;;;;5026422;28;20045;-75
2023/07/22 09:07:57;;;;;;;10.60;7.88;;;22.00;83.80;;;;;;5025495;28;20037;-74
2023/07/22 09:10:27;;;;;;;9.60;6.50;;;22.10;88.20;;;;;;5024644;28;20072;-74
2023/07/22 09:12:53;;;;;;;9.55;7.30;;;;;;;;;;5021375;28;20119;-73
2023/07/22 09:15:20;;;;;;;8.13;6.63;;;21.60;85.60;;;;;;5020312;28;20041;-73
2023/07/22 09:17:47;;;;;;;12.55;8.85;;;21.40;90.20;;;;;;5018930;28;20045;-75
2023/07/22 09:20:14;;;;;;;12.48;7.53;;;21.40;87.80;;;;;;5007337;28;20080;-74
2023/07/22 09:22:47;;;;;;;10.55;8.15;;;21.10;91.40;;;;;;5022502;28;20049;-74
2023/07/22 09:25:25;;;;;;;13.38;8.45;;;21.10;89.90;;;;;;5002786;28;20060;-74
2023/07/22 09:28:00;;;;;;;11.85;7.63;;;21.00;90.40;;;;;;5019203;28;20178;-75
2023/07/22 09:30:40;;;;;;;8.40;6.20;;;20.80;90.80;;;;;;5003705;28;20048;-73
2023/07/22 09:33:19;;;;;;;10.68;6.03;;;20.70;91.60;;;;;;5004596;28;20859;-74
2023/07/22 09:35:46;;;;;;;10.45;7.00;;;;;;;;;;5052602;28;20069;-75
2023/07/22 09:38:15;;;;;;;8.63;5.57;;;;;;;;;;5020344;28;20061;-73
2023/07/22 09:40:41;;;;;;;10.10;5.82;;;20.50;92.20;;;;;;5019219;28;20044;-73
2023/07/22 09:43:12;;;;;;;10.60;6.20;;;20.30;92.30;;;;;;5019472;28;20057;-73
2023/07/22 09:45:38;;;;;;;9.77;6.47;;;;;;;;;;5002932;28;20115;-74
2023/07/22 09:48:05;;;;;;;8.15;5.57;;;;;;;;;;5019298;28;20050;-73
2023/07/22 09:50:32;;;;;;;8.25;5.43;;;;;;;;;;5022852;28;20565;-73
2023/07/22 09:52:59;;;;;;;8.63;5.90;;;20.50;92.70;;;;;;5019633;28;20397;-73
2023/07/22 09:55:30;;;;;;;10.27;6.30;;;20.30;93.10;;;;;;5052233;28;20091;-73
2023/07/22 09:58:05;;;;;;;10.40;5.63;;;20.30;93.20;;;;;;5019398;28;20055;-72
2023/07/22 10:00:35;;;;;;;7.70;5.57;;;20.20;95.60;;;;;;5052734;28;20058;-73
2023/07/22 10:03:04;;;;;;;6.05;4.03;;;20.40;93.90;;;;;;5019785;28;20110;-74
2023/07/22 10:05:34;;;;;;;5.93;3.92;;;20.40;93.80;;;;;;5019321;28;20057;-73
2023/07/22 10:08:00;;;;;;;9.18;3.70;;;;;;;;;;5018550;28;20139;-74
2023/07/22 10:10:31;;;;;;;7.90;4.85;;;20.50;93.50;;;;;;5018802;28;20060;-74
2023/07/22 10:12:57;;;;;;;5.35;3.22;;;;;;;;;;5019149;28;20737;-74
2023/07/22 10:15:26;;;;;;;4.88;3.40;;;20.40;93.10;;;;;;4999862;28;20080;-75
2023/07/22 10:17:54;;;;;;;4.90;3.85;;;20.40;93.30;;;;;;5052189;28;20053;-74
2023/07/22 10:20:20;;;;;;;5.47;2.60;;;;;;;;;;5018416;28;20128;-74
2023/07/22 10:22:47;;;;;;;3.25;1.95;;;20.60;93.10;;;;;;5018657;28;20102;-75
2023/07/22 10:25:15;;;;;;;5.32;2.60;;;18.80;92.00;;;;;;5013417;28;20094;-75
2023/07/22 10:27:41;;;;;;;4.07;2.17;;;20.80;92.70;;;;;;5017295;28;20041;-74
2023/07/22 10:30:12;;;;;;;3.60;1.92;;;21.10;94.30;;;;;;5002528;28;20057;-76
2023/07/22 10:32:44;;;;;;;5.30;2.50;;;21.00;91.60;;;;;;5022437;28;20067;-75
2023/07/22 10:35:34;;;;;;;7.95;2.30;;;20.90;91.40;;;;;;5008076;28;20068;-75
2023/07/22 10:38:14;;;;;;;5.88;2.05;;;21.00;91.50;;;;;;5015511;28;20069;-75
2023/07/22 10:40:49;;;;;;;3.40;2.00;;;20.90;91.50;;;;;;5050189;28;20567;-76
2023/07/22 10:43:19;;;;;;;4.45;1.88;;;20.90;91.60;;;;;;5000747;28;20172;-74
2023/07/22 10:45:53;;;;;;;3.72;1.80;;;20.80;91.30;;;;;;5002099;28;20059;-75
2023/07/22 10:48:19;;;;;;;5.70;1.67;;;;;;;;;;5018355;28;20084;-75
2023/07/22 10:50:47;;;;;;;3.00;1.75;;;;;;;;;;5007193;28;20052;-74
2023/07/22 10:53:25;;;;;;;3.15;1.42;;;20.50;91.80;;;;;;5018010;28;20649;-75
2023/07/22 10:56:26;;;;;;;3.95;2.00;;;20.40;92.70;;;;;;5018388;28;20045;-74
2023/07/22 10:58:52;;;;;;;4.20;2.00;;;;;;;;;;4952175;28;20221;-75
2023/07/22 11:01:30;;;;;;;4.25;1.85;;;20.20;93.10;;;;;;5006542;28;20064;-75
2023/07/22 11:04:06;;;;;;;4.95;2.20;;;20.30;93.70;;;;;;5018330;28;20037;-75
2023/07/22 11:06:32;;;;;;;3.03;1.63;;;;;;;;;;5019372;28;20144;-76
2023/07/22 11:08:59;;;;;;;4.05;2.25;;;;;;;;;;5015334;28;20060;-77
2023/07/22 11:11:39;;;;;;;4.38;1.83;;;19.90;98.40;;;;;;5017168;28;20046;-79
2023/07/22 11:14:25;;;;;;;6.00;2.15;;;20.10;95.60;;;;;;5017432;28;20060;-81
2023/07/22 11:16:52;;;;;;;3.53;2.00;;;;;;;;;;5017924;28;20072;-81
2023/07/22 11:19:19;;;;;;;3.10;1.75;;;19.90;96.40;;;;;;5014672;28;20046;-78
2023/07/22 11:21:47;;;;;;;4.78;2.78;;;19.30;97.30;;;;;;4997566;28;20053;-80
2023/07/22 11:24:14;;;;;;;5.45;2.50;;;;;;;;;;5002342;28;20084;-79
2023/07/22 11:26:40;;;;;;;5.32;2.72;;;;;;;;;;5018157;28;20077;-77
2023/07/22 11:29:08;;;;;;;9.85;3.28;;;18.60;99.70;;;;;;5019646;28;20065;-82
2023/07/22 11:31:46;;;;;;;5.93;3.33;;;18.30;99.90;;;;;;5014908;28;20058;-83
2023/07/22 11:34:20;;;;;;;8.93;4.93;;;18.40;99.90;;;;;;5023569;28;20085;-83
2023/07/22 11:36:47;;;;;;;10.13;4.88;;;17.90;99.90;;;;;;5022114;28;20071;-79
2023/07/22 11:39:19;;;;;;;10.75;5.25;;;17.60;99.90;;;;;;5017887;28;20675;-83
2023/07/22 11:41:46;;;;;;;8.75;5.30;;;;;;;;;;5020035;28;20041;-81
2023/07/22 11:44:13;;;;;;;14.25;6.13;;;;;;;;;;5005736;28;20054;-84
2023/07/22 11:46:57;;;;;;;11.52;5.88;;;17.30;99.90;;;;;;5005599;28;20054;-81
2023/07/22 11:49:31;;;;;;;22.63;7.82;;;17.30;99.90;;;;;;5001670;28;20069;-81
2023/07/22 11:52:05;;;;;;;6.63;5.53;;;17.20;99.90;;;;;;5019585;28;20057;-85
2023/07/22 11:54:39;;;;;;;8.23;5.95;;;17.10;99.90;;;;;;5019794;28;20067;-81
2023/07/22 11:57:20;;;;;;;11.13;6.03;;;16.90;99.90;;;;;;5019276;28;20053;-80
2023/07/22 11:59:51;;;;;;;10.98;6.90;;;16.50;99.90;;;;;;5002626;28;20120;-81
2023/07/22 12:02:25;;;;;;;12.68;7.22;;;16.60;99.90;;;;;;5020571;28;20073;-80
2023/07/22 12:05:03;;;;;;;15.23;8.95;;;16.50;99.90;;;;;;5021094;28;20049;-79
2023/07/22 12:07:30;;;;;;;13.38;8.70;;;16.50;99.90;;;;;;4668745;28;10000260;-78
2023/07/22 12:09:57;;;;;;;15.68;9.65;;;16.60;99.90;;;;;;5005494;28;20065;-78
2023/07/22 12:12:53;;;;;;;20.98;9.30;;;16.70;99.90;;;;;;5005531;28;20053;-78
2023/07/22 12:15:20;;;;;;;13.40;7.50;;;;;;;;;;4987610;28;20520;-78
2023/07/22 12:17:46;;;;;;;10.40;6.95;;;;;;;;;;5013085;28;20053;-81
2023/07/22 12:20:13;;;;;;;15.10;6.18;;;16.60;99.90;;;;;;5017323;28;20064;-79
2023/07/22 12:22:39;;;;;;;9.25;6.05;;;;;;;;;;5018439;28;20046;-79
2023/07/22 12:25:06;;;;;;;8.93;5.90;;;16.40;99.90;;;;;;5018259;28;20046;-80
2023/07/22 12:27:32;;;;;;;7.78;5.05;;;16.60;99.90;;;;;;5003213;28;20038;-78
2023/07/22 12:29:58;;;;;;;7.85;5.28;;;16.60;99.90;;;;;;5013042;28;20825;-78
2023/07/22 12:32:24;;;;;;;7.43;4.97;;;;;;;;;;5009817;28;20060;-77
2023/07/22 12:34:50;;;;;;;6.05;4.03;;;;;;;;;;4999836;28;20068;-78
2023/07/22 12:37:16;;;;;;;7.82;5.30;;;;;;;;;;4998117;28;20045;-76
2023/07/22 12:39:42;;;;;;;5.97;4.30;;;;;;;;;;5015477;28;20382;-80
2023/07/22 12:42:08;;;;;;;8.02;5.65;;;17.30;99.90;;;;;;5015396;28;20046;-79
2023/07/22 12:44:34;;;;;;;8.25;5.18;;;;;;;;;;5017577;28;20048;-78
2023/07/22 12:47:00;;;;;;;7.88;5.75;;;;;;;;;;5018030;28;20045;-79
2023/07/22 12:49:26;;;;;;;7.70;5.88;;;;;;;;;;5019897;28;20045;-78
2023/07/22 12:51:52;;;;;;;7.30;6.00;;;;;;;;;;5018934;28;20069;-78
2023/07/22 12:54:18;;;;;;;10.25;6.68;;;;;;;;;;5005522;28;20103;-79
2023/07/22 12:56:44;;;;;;;9.77;6.85;;;17.70;99.90;;;;;;5018416;28;20151;-78
2023/07/22 12:59:11;;;;;;;7.43;5.95;;;;;;;;;;5001806;28;20134;-79
2023/07/22 13:01:39;;;;;;;8.25;6.82;;;;;;;;;;5001794;28;20045;-79
2023/07/22 13:04:05;;;;;;;9.10;7.15;;;;;;;;;;5002898;28;20053;-81
2023/07/22 13:06:31;;;;;;;10.90;8.18;;;;;;;;;;5003562;28;20041;-80
2023/07/22 13:08:57;;;;;;;11.85;8.35;;;;;;;;;;5019097;28;20068;-80
2023/07/22 13:11:23;;;;;;;9.80;7.85;;;;;;;;;;5024112;28;20672;-82
2023/07/22 13:13:50;;;;;;;11.55;8.23;;;;;;;;;;5015035;28;20053;-80
2023/07/22 13:16:16;;;;;;;13.48;9.15;;;;;;;;;;5024231;28;20055;-79
2023/07/22 13:18:41;;;;;;;10.60;9.32;;;16.80;99.90;;;;;;5022993;28;20057;-81
2023/07/22 13:21:08;;;;;;;10.88;9.73;;;;;;;;;;5021124;28;20531;-80
2023/07/22 13:23:35;;;;;;;18.85;11.80;;;;;;;;;;5019795;28;20041;-79
2023/07/22 13:26:01;;;;;;;15.55;11.05;;;;;;;;;;5003574;28;20045;-80
2023/07/22 13:28:27;;;;;;;13.55;10.52;;;;;;;;;;5019748;28;20503;-79
2023/07/22 13:30:52;;;;;;;15.27;11.20;;;17.00;99.90;;;;;;5019090;28;20132;-78
2023/07/22 13:33:18;;;;;;;12.80;10.15;;;16.80;99.90;;;;;;5019497;28;20162;-82
2023/07/22 13:35:44;;;;;;;21.75;11.63;;;16.90;99.90;;;;;;5037847;28;20049;-79
2023/07/22 13:38:10;;;;;;;12.10;10.00;;;16.80;99.90;;;;;;5023136;28;20049;-77
2023/07/22 13:40:36;;;;;;;12.43;9.25;;;;;;;;;;5018406;28;20060;-78
2023/07/22 13:43:02;;;;;;;11.85;9.27;;;;;;;;;;5020415;28;20045;-78
2023/07/22 13:45:29;;;;;;;13.43;9.88;;;;;;;;;;5024712;28;20049;-83
2023/07/22 13:47:55;;;;;;;10.68;8.98;;;;;;;;;;5019286;28;20440;-80
2023/07/22 13:50:21;;;;;;;14.15;8.23;;;;;;;;;;5008517;28;20056;-83